Time,TemperatureF,DewpointF,PressureIn,WindDirection,WindDirectionDegrees,WindSpeedMPH,WindSpeedGustMPH,Humidity,HourlyPrecipIn,Conditions,Clouds,dailyrainin,SoftwareType,DateUTC
2013-02-26 00:02:00,33.4,25.0,30.16,NW,323,9.0,11.0,71,0.00,,,0.00,Wunderground v.1.15,2013-02-26 08:02:00,
2013-02-26 00:03:00,33.5,24.8,30.16,NW,325,8.0,9.0,70,0.00,,,0.00,Wunderground v.1.15,2013-02-26 08:03:00,
2013-02-26 00:08:00,33.3,24.6,30.16,NNW,331,10.0,10.0,70,0.00,,,0.00,Wunderground v.1.15,2013-02-26 08:08:00,
2013-02-26 00:09:00,33.3,24.6,30.16,NNW,327,11.0,11.0,70,0.00,,,0.00,Wunderground v.1.15,2013-02-26 08:09:00,
2013-02-26 00:11:00,33.5,24.8,30.16,NNW,327,9.0,11.0,70,0.00,,,0.00,Wunderground v.1.15,2013-02-26 08:11:00,
2013-02-26 00:12:00,33.6,24.9,30.16,NNW,327,9.0,11.0,70,0.00,,,0.00,Wunderground v.1.15,2013-02-26 08:12:00,
2013-02-26 00:14:00,33.7,25.0,30.16,NNW,329,9.0,10.0,70,0.00,,,0.00,Wunderground v.1.15,2013-02-26 08:14:00,
2013-02-26 00:16:00,33.9,25.1,30.16,NW,321,10.0,10.0,70,0.00,,,0.00,Wunderground v.1.15,2013-02-26 08:16:00,
2013-02-26 00:17:00,34.0,24.9,30.16,NW,324,9.0,10.0,69,0.00,,,0.00,Wunderground v.1.15,2013-02-26 08:17:00,
2013-02-26 00:18:00,34.1,25.0,30.16,NW,325,9.0,10.0,69,0.00,,,0.00,Wunderground v.1.15,2013-02-26 08:18:00,
2013-02-26 00:24:00,34.0,24.9,30.16,WNW,300,7.0,9.0,69,0.00,,,0.00,Wunderground v.1.15,2013-02-26 08:24:00,
2013-02-26 00:28:00,33.7,24.6,30.17,WNW,299,7.0,9.0,69,0.00,,,0.00,Wunderground v.1.15,2013-02-26 08:28:00,
2013-02-26 00:29:00,33.7,24.6,30.16,WNW,303,8.0,9.0,69,0.00,,,0.00,Wunderground v.1.15,2013-02-26 08:29:00,
2013-02-26 00:31:00,33.7,24.6,30.17,WNW,299,7.0,9.0,69,0.00,,,0.00,Wunderground v.1.15,2013-02-26 08:31:00,
2013-02-26 00:34:00,33.8,24.7,30.17,WNW,296,8.0,8.0,69,0.00,,,0.00,Wunderground v.1.15,2013-02-26 08:34:00,
2013-02-26 00:35:00,33.8,24.7,30.17,WNW,298,7.0,8.0,69,0.00,,,0.00,Wunderground v.1.15,2013-02-26 08:35:00,
2013-02-26 00:37:00,33.9,24.8,30.17,WNW,294,6.0,8.0,69,0.00,,,0.00,Wunderground v.1.15,2013-02-26 08:37:00,
2013-02-26 00:41:00,33.7,24.3,30.17,West,281,7.0,8.0,68,0.00,,,0.00,Wunderground v.1.15,2013-02-26 08:41:00,
2013-02-26 00:47:00,33.3,24.2,30.17,WNW,294,9.0,9.0,69,0.00,,,0.00,Wunderground v.1.15,2013-02-26 08:47:00,
2013-02-26 00:49:00,33.5,24.4,30.17,WNW,299,7.0,9.0,69,0.00,,,0.00,Wunderground v.1.15,2013-02-26 08:49:00,
2013-02-26 00:51:00,33.7,24.3,30.17,NW,304,6.0,9.0,68,0.00,,,0.00,Wunderground v.1.15,2013-02-26 08:51:00,
2013-02-26 00:54:00,33.6,24.2,30.17,WNW,300,8.0,8.0,68,0.00,,,0.00,Wunderground v.1.15,2013-02-26 08:54:00,
2013-02-26 00:56:00,33.8,24.0,30.17,WNW,293,8.0,8.0,67,0.00,,,0.00,Wunderground v.1.15,2013-02-26 08:56:00,
2013-02-26 00:58:00,34.1,24.3,30.18,WNW,291,10.0,10.0,67,0.00,,,0.00,Wunderground v.1.15,2013-02-26 08:58:00,
2013-02-26 01:00:00,34.5,24.3,30.18,WNW,287,10.0,10.0,66,0.00,,,0.00,Wunderground v.1.15,2013-02-26 09:00:00,
2013-02-26 01:03:00,34.9,24.3,30.18,WNW,292,9.0,9.0,65,0.00,,,0.00,Wunderground v.1.15,2013-02-26 09:03:00,
2013-02-26 01:05:00,35.2,24.2,30.18,WNW,290,14.0,14.0,64,0.00,,,0.00,Wunderground v.1.15,2013-02-26 09:05:00,
2013-02-26 01:06:00,35.3,24.3,30.18,WNW,298,10.0,14.0,64,0.00,,,0.00,Wunderground v.1.15,2013-02-26 09:06:00,
2013-02-26 01:07:00,35.4,24.0,30.18,WNW,291,11.0,14.0,63,0.00,,,0.00,Wunderground v.1.15,2013-02-26 09:07:00,
2013-02-26 01:09:00,35.6,24.2,30.18,WNW,288,10.0,15.0,63,0.00,,,0.00,Wunderground v.1.15,2013-02-26 09:09:00,
2013-02-26 01:12:00,35.7,23.9,30.18,WNW,300,10.0,15.0,62,0.00,,,0.00,Wunderground v.1.15,2013-02-26 09:12:00,
2013-02-26 01:13:00,35.9,24.1,30.18,WNW,303,13.0,13.0,62,0.00,,,0.00,Wunderground v.1.15,2013-02-26 09:13:00,
2013-02-26 01:15:00,36.0,23.8,30.18,WNW,302,11.0,13.0,61,0.00,,,0.00,Wunderground v.1.15,2013-02-26 09:15:00,
2013-02-26 01:18:00,36.0,23.8,30.18,WNW,299,8.0,13.0,61,0.00,,,0.00,Wunderground v.1.15,2013-02-26 09:18:00,
2013-02-26 01:19:00,36.0,23.8,30.18,WNW,299,10.0,13.0,61,0.00,,,0.00,Wunderground v.1.15,2013-02-26 09:19:00,
2013-02-26 01:23:00,35.6,23.9,30.18,WNW,297,10.0,11.0,62,0.00,,,0.00,Wunderground v.1.15,2013-02-26 09:23:00,
2013-02-26 01:24:00,35.5,23.8,30.18,WNW,302,9.0,11.0,62,0.00,,,0.00,Wunderground v.1.15,2013-02-26 09:24:00,
2013-02-26 01:26:00,35.3,23.6,30.18,WNW,294,8.0,12.0,62,0.00,,,0.00,Wunderground v.1.15,2013-02-26 09:26:00,
2013-02-26 01:29:00,34.8,23.5,30.18,NW,306,14.0,14.0,63,0.00,,,0.00,Wunderground v.1.15,2013-02-26 09:29:00,
2013-02-26 01:30:00,34.7,23.4,30.18,WNW,288,12.0,14.0,63,0.00,,,0.00,Wunderground v.1.15,2013-02-26 09:30:00,
2013-02-26 01:32:00,34.4,23.5,30.18,WNW,303,13.0,14.0,64,0.00,,,0.00,Wunderground v.1.15,2013-02-26 09:32:00,
2013-02-26 01:37:00,34.0,23.5,30.18,WNW,299,10.0,15.0,65,0.00,,,0.00,Wunderground v.1.15,2013-02-26 09:37:00,
2013-02-26 01:38:00,34.0,23.5,30.18,WNW,299,7.0,15.0,65,0.00,,,0.00,Wunderground v.1.15,2013-02-26 09:38:00,
2013-02-26 01:40:00,33.9,23.7,30.18,NW,307,8.0,15.0,66,0.00,,,0.00,Wunderground v.1.15,2013-02-26 09:40:00,
2013-02-26 01:42:00,33.9,23.7,30.18,WNW,303,8.0,15.0,66,0.00,,,0.00,Wunderground v.1.15,2013-02-26 09:42:00,
2013-02-26 01:43:00,34.0,23.8,30.18,NW,318,7.0,10.0,66,0.00,,,0.00,Wunderground v.1.15,2013-02-26 09:43:00,
2013-02-26 01:45:00,34.3,23.7,30.18,NW,309,10.0,13.0,65,0.00,,,0.00,Wunderground v.1.15,2013-02-26 09:45:00,
2013-02-26 01:49:00,35.4,23.7,30.18,NW,306,11.0,13.0,62,0.00,,,0.00,Wunderground v.1.15,2013-02-26 09:49:00,
2013-02-26 01:52:00,35.7,23.6,30.18,WNW,288,12.0,13.0,61,0.00,,,0.00,Wunderground v.1.15,2013-02-26 09:52:00,
2013-02-26 01:53:00,35.8,23.7,30.18,WNW,294,10.0,10.0,61,0.00,,,0.00,Wunderground v.1.15,2013-02-26 09:53:00,
2013-02-26 01:54:00,35.9,23.7,30.18,WNW,299,5.0,10.0,61,0.00,,,0.00,Wunderground v.1.15,2013-02-26 09:54:00,
2013-02-26 01:59:00,36.5,23.5,30.19,NW,315,5.0,13.0,59,0.00,,,0.00,Wunderground v.1.15,2013-02-26 09:59:00,
2013-02-26 02:04:00,36.9,23.5,30.19,West,275,7.0,11.0,58,0.00,,,0.00,Wunderground v.1.15,2013-02-26 10:04:00,
2013-02-26 02:09:00,36.4,23.4,30.20,West,267,5.0,11.0,59,0.00,,,0.00,Wunderground v.1.15,2013-02-26 10:09:00,
2013-02-26 02:14:00,35.7,23.6,30.20,WNW,284,11.0,12.0,61,0.00,,,0.00,Wunderground v.1.15,2013-02-26 10:14:00,
2013-02-26 02:19:00,35.6,23.9,30.19,WNW,296,10.0,14.0,62,0.00,,,0.00,Wunderground v.1.15,2013-02-26 10:19:00,
2013-02-26 02:24:00,35.6,23.9,30.19,NW,309,14.0,15.0,62,0.00,,,0.00,Wunderground v.1.15,2013-02-26 10:24:00,
2013-02-26 02:29:00,35.6,23.9,30.19,WNW,302,14.0,17.0,62,0.00,,,0.00,Wunderground v.1.15,2013-02-26 10:29:00,
2013-02-26 02:34:00,36.0,23.8,30.19,WNW,299,14.0,17.0,61,0.00,,,0.00,Wunderground v.1.15,2013-02-26 10:34:00,
2013-02-26 02:39:00,36.4,23.4,30.19,NW,308,10.0,17.0,59,0.00,,,0.00,Wunderground v.1.15,2013-02-26 10:39:00,
2013-02-26 02:44:00,36.6,23.6,30.19,WNW,299,11.0,13.0,59,0.00,,,0.00,Wunderground v.1.15,2013-02-26 10:44:00,
2013-02-26 02:49:00,37.0,23.2,30.20,WNW,303,11.0,15.0,57,0.00,,,0.00,Wunderground v.1.15,2013-02-26 10:49:00,
2013-02-26 02:54:00,36.8,23.4,30.20,NW,309,8.0,12.0,58,0.00,,,0.00,Wunderground v.1.15,2013-02-26 10:54:00,
2013-02-26 02:59:00,36.5,23.5,30.20,NW,307,10.0,14.0,59,0.00,,,0.00,Wunderground v.1.15,2013-02-26 10:59:00,
2013-02-26 03:04:00,36.4,23.4,30.20,WNW,300,13.0,15.0,59,0.00,,,0.00,Wunderground v.1.15,2013-02-26 11:04:00,
2013-02-26 03:09:00,36.0,23.4,30.20,WNW,296,8.0,16.0,60,0.00,,,0.00,Wunderground v.1.15,2013-02-26 11:09:00,
2013-02-26 03:14:00,35.8,23.7,30.20,WNW,297,8.0,14.0,61,0.00,,,0.00,Wunderground v.1.15,2013-02-26 11:14:00,
2013-02-26 03:19:00,35.5,23.8,30.20,WNW,294,9.0,14.0,62,0.00,,,0.00,Wunderground v.1.15,2013-02-26 11:19:00,
2013-02-26 03:24:00,35.0,23.3,30.21,WNW,300,9.0,11.0,62,0.00,,,0.00,Wunderground v.1.15,2013-02-26 11:24:00,
2013-02-26 03:29:00,34.6,23.3,30.21,WNW,300,7.0,11.0,63,0.00,,,0.00,Wunderground v.1.15,2013-02-26 11:29:00,
2013-02-26 03:34:00,34.4,23.5,30.21,WNW,296,6.0,9.0,64,0.00,,,0.00,Wunderground v.1.15,2013-02-26 11:34:00,
2013-02-26 03:39:00,34.5,23.2,30.21,NW,310,9.0,11.0,63,0.00,,,0.00,Wunderground v.1.15,2013-02-26 11:39:00,
2013-02-26 03:44:00,35.2,23.1,30.21,NW,307,11.0,13.0,61,0.00,,,0.00,Wunderground v.1.15,2013-02-26 11:44:00,
2013-02-26 03:49:00,35.3,23.2,30.21,NW,311,14.0,15.0,61,0.00,,,0.00,Wunderground v.1.15,2013-02-26 11:49:00,
2013-02-26 03:54:00,35.2,23.1,30.21,NW,314,10.0,15.0,61,0.00,,,0.00,Wunderground v.1.15,2013-02-26 11:54:00,
2013-02-26 03:59:00,35.7,23.2,30.21,NW,317,10.0,16.0,60,0.00,,,0.00,Wunderground v.1.15,2013-02-26 11:59:00,
2013-02-26 04:00:00,35.7,23.2,30.21,NW,317,12.0,16.0,60,0.00,,,0.00,Wunderground v.1.15,2013-02-26 12:00:00,
2013-02-26 04:03:00,35.6,23.1,30.21,NW,316,12.0,12.0,60,0.00,,,0.00,Wunderground v.1.15,2013-02-26 12:03:00,
2013-02-26 04:06:00,35.5,23.0,30.22,NW,323,9.0,12.0,60,0.00,,,0.00,Wunderground v.1.15,2013-02-26 12:06:00,
2013-02-26 04:07:00,35.4,22.9,30.22,NW,312,10.0,12.0,60,0.00,,,0.00,Wunderground v.1.15,2013-02-26 12:07:00,
2013-02-26 04:10:00,35.1,22.6,30.22,NW,304,6.0,12.0,60,0.00,,,0.00,Wunderground v.1.15,2013-02-26 12:10:00,
2013-02-26 04:13:00,34.8,22.7,30.22,WNW,295,5.0,5.0,61,0.00,,,0.00,Wunderground v.1.15,2013-02-26 12:13:00,
2013-02-26 04:15:00,34.6,22.9,30.22,WNW,298,10.0,10.0,62,0.00,,,0.00,Wunderground v.1.15,2013-02-26 12:15:00,
2013-02-26 04:19:00,33.9,22.6,30.22,NW,313,7.0,10.0,63,0.00,,,0.00,Wunderground v.1.15,2013-02-26 12:19:00,
2013-02-26 04:25:00,34.7,23.4,30.22,NW,304,12.0,12.0,63,0.00,,,0.00,Wunderground v.1.15,2013-02-26 12:25:00,
2013-02-26 05:24:00,33.8,22.5,30.24,WNW,288,3.0,3.0,63,0.00,,,0.00,Wunderground v.1.15,2013-02-26 13:24:00,
2013-02-26 05:29:00,33.7,22.4,30.24,WNW,289,2.0,6.0,63,0.00,,,0.00,Wunderground v.1.15,2013-02-26 13:29:00,
2013-02-26 05:31:00,33.1,22.2,30.24,WSW,249,5.0,6.0,64,0.00,,,0.00,Wunderground v.1.15,2013-02-26 13:31:00,
2013-02-26 05:44:00,32.1,22.7,30.25,SSE,164,4.0,4.0,68,0.00,,,0.00,Wunderground v.1.15,2013-02-26 13:44:00,
2013-02-26 05:49:00,33.1,23.0,30.25,SSW,204,1.0,7.0,66,0.00,,,0.00,Wunderground v.1.15,2013-02-26 13:49:00,
2013-02-26 05:55:00,33.8,22.9,30.25,SSW,204,3.0,3.0,64,0.00,,,0.00,Wunderground v.1.15,2013-02-26 13:55:00,
2013-02-26 06:00:00,33.9,22.6,30.25,SSW,207,3.0,5.0,63,0.00,,,0.00,Wunderground v.1.15,2013-02-26 14:00:00,
2013-02-26 06:02:00,34.0,22.7,30.25,SSW,213,4.0,5.0,63,0.00,,,0.00,Wunderground v.1.15,2013-02-26 14:02:00,
2013-02-26 06:03:00,34.1,22.8,30.25,SW,215,4.0,4.0,63,0.00,,,0.00,Wunderground v.1.15,2013-02-26 14:03:00,
2013-02-26 06:04:00,34.2,22.9,30.25,SW,215,3.0,4.0,63,0.00,,,0.00,Wunderground v.1.15,2013-02-26 14:04:00,
2013-02-26 06:08:00,34.2,22.5,30.25,SW,226,5.0,5.0,62,0.00,,,0.00,Wunderground v.1.15,2013-02-26 14:08:00,
2013-02-26 06:13:00,33.9,22.6,30.25,SW,229,2.0,4.0,63,0.00,,,0.00,Wunderground v.1.15,2013-02-26 14:13:00,
2013-02-26 06:18:00,33.1,22.2,30.26,SW,229,2.0,5.0,64,0.00,,,0.00,Wunderground v.1.15,2013-02-26 14:18:00,
2013-02-26 06:23:00,33.0,22.5,30.26,SW,229,2.0,2.0,65,0.00,,,0.00,Wunderground v.1.15,2013-02-26 14:23:00,
2013-02-26 06:28:00,33.2,22.7,30.26,SW,233,4.0,4.0,65,0.00,,,0.00,Wunderground v.1.15,2013-02-26 14:28:00,
2013-02-26 06:33:00,33.5,22.6,30.26,WSW,256,3.0,4.0,64,0.00,,,0.00,Wunderground v.1.15,2013-02-26 14:33:00,
2013-02-26 06:38:00,33.0,22.1,30.26,WSW,256,0.0,4.0,64,0.00,,,0.00,Wunderground v.1.15,2013-02-26 14:38:00,
2013-02-26 06:43:00,31.8,21.7,30.27,WSW,250,3.0,4.0,66,0.00,,,0.00,Wunderground v.1.15,2013-02-26 14:43:00,
2013-02-26 06:48:00,31.1,22.1,30.27,WSW,244,4.0,6.0,69,0.00,,,0.00,Wunderground v.1.15,2013-02-26 14:48:00,
2013-02-26 06:53:00,30.5,21.9,30.27,WSW,244,1.0,4.0,70,0.00,,,0.00,Wunderground v.1.15,2013-02-26 14:53:00,
2013-02-26 06:58:00,30.3,22.4,30.27,WSW,244,0.0,4.0,72,0.00,,,0.00,Wunderground v.1.15,2013-02-26 14:58:00,
2013-02-26 07:03:00,30.7,22.7,30.28,WSW,244,1.0,1.0,72,0.00,,,0.00,Wunderground v.1.15,2013-02-26 15:03:00,
2013-02-26 07:08:00,30.9,22.6,30.28,WSW,244,0.0,1.0,71,0.00,,,0.00,Wunderground v.1.15,2013-02-26 15:08:00,
2013-02-26 07:13:00,31.4,23.1,30.28,WSW,244,0.0,0.0,71,0.00,,,0.00,Wunderground v.1.15,2013-02-26 15:13:00,
2013-02-26 07:18:00,31.5,22.8,30.28,WSW,244,0.0,2.0,70,0.00,,,0.00,Wunderground v.1.15,2013-02-26 15:18:00,
2013-02-26 07:23:00,31.5,23.2,30.28,WSW,244,1.0,2.0,71,0.00,,,0.00,Wunderground v.1.15,2013-02-26 15:23:00,
2013-02-26 07:28:00,31.3,23.0,30.28,WSW,244,3.0,3.0,71,0.00,,,0.00,Wunderground v.1.15,2013-02-26 15:28:00,
2013-02-26 07:33:00,31.4,23.4,30.28,WSW,244,0.0,2.0,72,0.00,,,0.00,Wunderground v.1.15,2013-02-26 15:33:00,
2013-02-26 07:38:00,31.9,23.9,30.28,WSW,244,0.0,4.0,72,0.00,,,0.00,Wunderground v.1.15,2013-02-26 15:38:00,
2013-02-26 07:43:00,32.4,24.4,30.28,WSW,244,2.0,3.0,72,0.00,,,0.00,Wunderground v.1.15,2013-02-26 15:43:00,
2013-02-26 07:48:00,33.0,24.3,30.28,WSW,244,2.0,3.0,70,0.00,,,0.00,Wunderground v.1.15,2013-02-26 15:48:00,
2013-02-26 07:53:00,33.6,24.5,30.28,WSW,244,0.0,1.0,69,0.00,,,0.00,Wunderground v.1.15,2013-02-26 15:53:00,
2013-02-26 07:58:00,34.3,24.5,30.29,WSW,244,0.0,1.0,67,0.00,,,0.00,Wunderground v.1.15,2013-02-26 15:58:00,
2013-02-26 08:03:00,34.8,24.6,30.29,WSW,244,0.0,0.0,66,0.00,,,0.00,Wunderground v.1.15,2013-02-26 16:03:00,
2013-02-26 08:08:00,35.6,25.0,30.29,WSW,244,0.0,0.0,65,0.00,,,0.00,Wunderground v.1.15,2013-02-26 16:08:00,
2013-02-26 08:13:00,36.0,24.2,30.29,WSW,244,2.0,3.0,62,0.00,,,0.00,Wunderground v.1.15,2013-02-26 16:13:00,
2013-02-26 08:18:00,36.1,24.3,30.29,WSW,244,3.0,3.0,62,0.00,,,0.00,Wunderground v.1.15,2013-02-26 16:18:00,
2013-02-26 08:23:00,36.5,24.7,30.30,WSW,244,0.0,3.0,62,0.00,,,0.00,Wunderground v.1.15,2013-02-26 16:23:00,
2013-02-26 08:28:00,37.1,24.5,30.30,WSW,244,0.0,3.0,60,0.00,,,0.00,Wunderground v.1.15,2013-02-26 16:28:00,
2013-02-26 08:33:00,37.4,24.8,30.30,WSW,244,2.0,2.0,60,0.00,,,0.00,Wunderground v.1.15,2013-02-26 16:33:00,
2013-02-26 08:38:00,37.9,24.8,30.30,WSW,244,1.0,2.0,59,0.00,,,0.00,Wunderground v.1.15,2013-02-26 16:38:00,
2013-02-26 08:43:00,38.2,24.7,30.30,WSW,244,0.0,1.0,58,0.00,,,0.00,Wunderground v.1.15,2013-02-26 16:43:00,
2013-02-26 08:48:00,38.9,24.9,30.30,WSW,244,2.0,3.0,57,0.00,,,0.00,Wunderground v.1.15,2013-02-26 16:48:00,
2013-02-26 08:53:00,39.0,25.0,30.30,WSW,244,0.0,1.0,57,0.00,,,0.00,Wunderground v.1.15,2013-02-26 16:53:00,
2013-02-26 08:58:00,39.6,25.6,30.30,WSW,244,0.0,2.0,57,0.00,,,0.00,Wunderground v.1.15,2013-02-26 16:58:00,
2013-02-26 09:03:00,40.0,25.1,30.30,WSW,244,2.0,3.0,55,0.00,,,0.00,Wunderground v.1.15,2013-02-26 17:03:00,
2013-02-26 09:08:00,40.0,25.1,30.30,WSW,244,3.0,5.0,55,0.00,,,0.00,Wunderground v.1.15,2013-02-26 17:08:00,
2013-02-26 09:13:00,40.4,25.5,30.31,WSW,244,0.0,2.0,55,0.00,,,0.00,Wunderground v.1.15,2013-02-26 17:13:00,
2013-02-26 09:18:00,40.6,24.8,30.31,WSW,244,1.0,3.0,53,0.00,,,0.00,Wunderground v.1.15,2013-02-26 17:18:00,
2013-02-26 09:23:00,40.9,25.1,30.31,WSW,244,0.0,1.0,53,0.00,,,0.00,Wunderground v.1.15,2013-02-26 17:23:00,
2013-02-26 09:28:00,41.1,24.8,30.30,WSW,244,1.0,4.0,52,0.00,,,0.00,Wunderground v.1.15,2013-02-26 17:28:00,
2013-02-26 09:33:00,41.6,25.3,30.31,WSW,244,3.0,4.0,52,0.00,,,0.00,Wunderground v.1.15,2013-02-26 17:33:00,
2013-02-26 09:38:00,41.9,25.1,30.30,WSW,244,3.0,4.0,51,0.00,,,0.00,Wunderground v.1.15,2013-02-26 17:38:00,
2013-02-26 09:43:00,42.2,25.3,30.30,SW,236,3.0,5.0,51,0.00,,,0.00,Wunderground v.1.15,2013-02-26 17:43:00,
2013-02-26 09:48:00,42.1,25.3,30.30,SW,216,1.0,7.0,51,0.00,,,0.00,Wunderground v.1.15,2013-02-26 17:48:00,
2013-02-26 09:53:00,42.2,24.9,30.30,SSW,211,6.0,7.0,50,0.00,,,0.00,Wunderground v.1.15,2013-02-26 17:53:00,
2013-02-26 09:58:00,42.2,24.9,30.30,SSW,210,1.0,7.0,50,0.00,,,0.00,Wunderground v.1.15,2013-02-26 17:58:00,
2013-02-26 10:03:00,42.4,24.6,30.30,SSW,196,6.0,7.0,49,0.00,,,0.00,Wunderground v.1.15,2013-02-26 18:03:00,
2013-02-26 10:08:00,41.8,25.0,30.30,SSE,151,6.0,10.0,51,0.00,,,0.00,Wunderground v.1.15,2013-02-26 18:08:00,
2013-02-26 10:13:00,42.0,25.2,30.30,SE,139,5.0,7.0,51,0.00,,,0.00,Wunderground v.1.15,2013-02-26 18:13:00,
2013-02-26 10:18:00,42.0,26.5,30.30,SE,127,4.0,10.0,54,0.00,,,0.00,Wunderground v.1.15,2013-02-26 18:18:00,
2013-02-26 10:23:00,42.1,27.1,30.30,ESE,107,9.0,9.0,55,0.00,,,0.00,Wunderground v.1.15,2013-02-26 18:23:00,
2013-02-26 10:28:00,41.9,27.3,30.29,ESE,107,8.0,11.0,56,0.00,,,0.00,Wunderground v.1.15,2013-02-26 18:28:00,
2013-02-26 10:33:00,42.0,27.0,30.30,ESE,123,13.0,13.0,55,0.00,,,0.00,Wunderground v.1.15,2013-02-26 18:33:00,
2013-02-26 10:38:00,41.9,27.3,30.30,East,98,7.0,13.0,56,0.00,,,0.00,Wunderground v.1.15,2013-02-26 18:38:00,
2013-02-26 10:43:00,41.8,27.7,30.30,ESE,105,6.0,9.0,57,0.00,,,0.00,Wunderground v.1.15,2013-02-26 18:43:00,
2013-02-26 10:48:00,41.7,27.6,30.29,ESE,113,8.0,13.0,57,0.00,,,0.00,Wunderground v.1.15,2013-02-26 18:48:00,
2013-02-26 10:53:00,41.9,26.9,30.29,ESE,116,8.0,11.0,55,0.00,,,0.00,Wunderground v.1.15,2013-02-26 18:53:00,
2013-02-26 10:58:00,41.8,27.2,30.30,ESE,103,7.0,14.0,56,0.00,,,0.00,Wunderground v.1.15,2013-02-26 18:58:00,
2013-02-26 11:03:00,42.1,27.1,30.30,ESE,107,6.0,9.0,55,0.00,,,0.00,Wunderground v.1.15,2013-02-26 19:03:00,
2013-02-26 11:08:00,42.7,26.7,30.30,ESE,114,5.0,11.0,53,0.00,,,0.00,Wunderground v.1.15,2013-02-26 19:08:00,
2013-02-26 11:13:00,43.2,27.2,30.30,ESE,116,11.0,11.0,53,0.00,,,0.00,Wunderground v.1.15,2013-02-26 19:13:00,
2013-02-26 11:18:00,43.6,25.7,30.30,SE,146,4.0,17.0,49,0.00,,,0.00,Wunderground v.1.15,2013-02-26 19:18:00,
2013-02-26 11:23:00,44.1,26.6,30.30,SE,146,1.0,6.0,50,0.00,,,0.00,Wunderground v.1.15,2013-02-26 19:23:00,
2013-02-26 11:28:00,44.4,25.4,30.29,SE,125,4.0,9.0,47,0.00,,,0.00,Wunderground v.1.15,2013-02-26 19:28:00,
2013-02-26 11:33:00,44.9,25.3,30.29,SSE,164,6.0,6.0,46,0.00,,,0.00,Wunderground v.1.15,2013-02-26 19:33:00,
2013-02-26 11:38:00,45.9,23.5,30.30,NW,311,8.0,22.0,41,0.00,,,0.00,Wunderground v.1.15,2013-02-26 19:38:00,
2013-02-26 11:43:00,45.6,21.4,30.30,WSW,258,9.0,11.0,38,0.00,,,0.00,Wunderground v.1.15,2013-02-26 19:43:00,
2013-02-26 11:48:00,45.3,20.5,30.29,WSW,254,7.0,11.0,37,0.00,,,0.00,Wunderground v.1.15,2013-02-26 19:48:00,
2013-02-26 11:53:00,45.1,20.3,30.29,SW,233,2.0,7.0,37,0.00,,,0.00,Wunderground v.1.15,2013-02-26 19:53:00,
2013-02-26 11:58:00,45.5,20.7,30.29,SW,233,3.0,7.0,37,0.00,,,0.00,Wunderground v.1.15,2013-02-26 19:58:00,
2013-02-26 12:03:00,45.9,21.7,30.29,SW,227,9.0,9.0,38,0.00,,,0.00,Wunderground v.1.15,2013-02-26 20:03:00,
2013-02-26 12:08:00,46.0,21.1,30.29,West,265,5.0,10.0,37,0.00,,,0.00,Wunderground v.1.15,2013-02-26 20:08:00,
2013-02-26 12:13:00,46.0,21.1,30.28,West,265,1.0,4.0,37,0.00,,,0.00,Wunderground v.1.15,2013-02-26 20:13:00,
2013-02-26 12:18:00,46.6,21.7,30.28,SSW,201,4.0,12.0,37,0.00,,,0.00,Wunderground v.1.15,2013-02-26 20:18:00,
2013-02-26 12:23:00,46.6,21.0,30.28,SW,219,7.0,7.0,36,0.00,,,0.00,Wunderground v.1.15,2013-02-26 20:23:00,
2013-02-26 12:28:00,46.5,20.9,30.28,SSW,204,3.0,8.0,36,0.00,,,0.00,Wunderground v.1.15,2013-02-26 20:28:00,
2013-02-26 12:33:00,46.5,20.9,30.28,SSW,201,1.0,4.0,36,0.00,,,0.00,Wunderground v.1.15,2013-02-26 20:33:00,
2013-02-26 12:38:00,46.8,21.9,30.28,SW,215,6.0,11.0,37,0.00,,,0.00,Wunderground v.1.15,2013-02-26 20:38:00,
2013-02-26 12:43:00,47.0,21.4,30.28,South,191,11.0,12.0,36,0.00,,,0.00,Wunderground v.1.15,2013-02-26 20:43:00,
2013-02-26 12:48:00,46.4,20.9,30.28,South,186,5.0,15.0,36,0.00,,,0.00,Wunderground v.1.15,2013-02-26 20:48:00,
2013-02-26 12:53:00,46.3,21.4,30.27,South,178,8.0,8.0,37,0.00,,,0.00,Wunderground v.1.15,2013-02-26 20:53:00,
2013-02-26 12:58:00,46.4,20.9,30.27,SSE,167,0.0,10.0,36,0.00,,,0.00,Wunderground v.1.15,2013-02-26 20:58:00,
2013-02-26 13:03:00,46.5,21.6,30.27,South,178,9.0,11.0,37,0.00,,,0.00,Wunderground v.1.15,2013-02-26 21:03:00,
2013-02-26 13:08:00,46.7,23.0,30.27,SSW,202,9.0,11.0,39,0.00,,,0.00,Wunderground v.1.15,2013-02-26 21:08:00,
2013-02-26 13:13:00,46.8,23.7,30.27,SSE,165,11.0,11.0,40,0.00,,,0.00,Wunderground v.1.15,2013-02-26 21:13:00,
2013-02-26 13:18:00,46.5,23.4,30.27,South,174,5.0,12.0,40,0.00,,,0.00,Wunderground v.1.15,2013-02-26 21:18:00,
2013-02-26 13:23:00,46.5,24.0,30.27,South,175,8.0,12.0,41,0.00,,,0.00,Wunderground v.1.15,2013-02-26 21:23:00,
2013-02-26 13:28:00,46.3,24.4,30.27,South,173,10.0,15.0,42,0.00,,,0.00,Wunderground v.1.15,2013-02-26 21:28:00,
2013-02-26 13:33:00,46.2,24.3,30.27,SW,226,7.0,10.0,42,0.00,,,0.00,Wunderground v.1.15,2013-02-26 21:33:00,
2013-02-26 13:38:00,46.3,24.4,30.26,SW,231,4.0,11.0,42,0.00,,,0.00,Wunderground v.1.15,2013-02-26 21:38:00,
2013-02-26 13:43:00,46.7,24.2,30.26,South,172,7.0,8.0,41,0.00,,,0.00,Wunderground v.1.15,2013-02-26 21:43:00,
2013-02-26 13:48:00,46.6,24.1,30.26,South,188,8.0,11.0,41,0.00,,,0.00,Wunderground v.1.15,2013-02-26 21:48:00,
2013-02-26 13:53:00,46.6,24.1,30.26,South,174,8.0,9.0,41,0.00,,,0.00,Wunderground v.1.15,2013-02-26 21:53:00,
2013-02-26 13:58:00,46.8,24.3,30.26,SSE,163,7.0,10.0,41,0.00,,,0.00,Wunderground v.1.15,2013-02-26 21:58:00,
2013-02-26 14:03:00,47.0,23.9,30.26,SSW,200,9.0,10.0,40,0.00,,,0.00,Wunderground v.1.15,2013-02-26 22:03:00,
2013-02-26 14:08:00,46.9,23.2,30.26,SSW,207,6.0,12.0,39,0.00,,,0.00,Wunderground v.1.15,2013-02-26 22:08:00,
2013-02-26 14:13:00,46.9,23.2,30.26,SW,231,7.0,11.0,39,0.00,,,0.00,Wunderground v.1.15,2013-02-26 22:13:00,
2013-02-26 14:18:00,47.0,22.7,30.26,SSW,198,7.0,14.0,38,0.00,,,0.00,Wunderground v.1.15,2013-02-26 22:18:00,
2013-02-26 14:23:00,47.5,22.5,30.26,SSW,205,2.0,8.0,37,0.00,,,0.00,Wunderground v.1.15,2013-02-26 22:23:00,
2013-02-26 14:28:00,47.6,22.6,30.26,SSW,207,8.0,12.0,37,0.00,,,0.00,Wunderground v.1.15,2013-02-26 22:28:00,
2013-02-26 14:33:00,47.4,23.0,30.26,SSW,207,8.0,9.0,38,0.00,,,0.00,Wunderground v.1.15,2013-02-26 22:33:00,
2013-02-26 14:38:00,47.4,23.0,30.25,SSW,194,9.0,12.0,38,0.00,,,0.00,Wunderground v.1.15,2013-02-26 22:38:00,
2013-02-26 14:43:00,47.3,22.3,30.25,South,190,11.0,12.0,37,0.00,,,0.00,Wunderground v.1.15,2013-02-26 22:43:00,
2013-02-26 14:48:00,47.2,22.2,30.25,SSW,198,7.0,12.0,37,0.00,,,0.00,Wunderground v.1.15,2013-02-26 22:48:00,
2013-02-26 14:53:00,47.3,22.9,30.25,SSW,200,11.0,11.0,38,0.00,,,0.00,Wunderground v.1.15,2013-02-26 22:53:00,
2013-02-26 14:58:00,47.4,23.0,30.25,South,180,9.0,13.0,38,0.00,,,0.00,Wunderground v.1.15,2013-02-26 22:58:00,
2013-02-26 15:03:00,47.6,22.6,30.25,SSW,200,9.0,10.0,37,0.00,,,0.00,Wunderground v.1.15,2013-02-26 23:03:00,
2013-02-26 15:08:00,47.7,22.7,30.25,SW,223,5.0,11.0,37,0.00,,,0.00,Wunderground v.1.15,2013-02-26 23:08:00,
2013-02-26 15:13:00,47.7,23.3,30.25,SSW,207,9.0,11.0,38,0.00,,,0.00,Wunderground v.1.15,2013-02-26 23:13:00,
2013-02-26 15:18:00,47.7,22.7,30.25,South,180,9.0,13.0,37,0.00,,,0.00,Wunderground v.1.15,2013-02-26 23:18:00,
2013-02-26 15:23:00,47.7,23.3,30.25,SSW,194,6.0,10.0,38,0.00,,,0.00,Wunderground v.1.15,2013-02-26 23:23:00,
2013-02-26 15:28:00,47.5,23.7,30.24,SSW,193,11.0,13.0,39,0.00,,,0.00,Wunderground v.1.15,2013-02-26 23:28:00,
2013-02-26 15:33:00,47.4,23.7,30.24,SSE,159,7.0,9.0,39,0.00,,,0.00,Wunderground v.1.15,2013-02-26 23:33:00,
2013-02-26 15:38:00,47.2,23.5,30.24,South,169,9.0,12.0,39,0.00,,,0.00,Wunderground v.1.15,2013-02-26 23:38:00,
2013-02-26 15:43:00,46.9,24.4,30.24,South,178,6.0,12.0,41,0.00,,,0.00,Wunderground v.1.15,2013-02-26 23:43:00,
2013-02-26 15:48:00,46.5,24.6,30.24,SSE,147,15.0,17.0,42,0.00,,,0.00,Wunderground v.1.15,2013-02-26 23:48:00,
2013-02-26 15:53:00,46.1,24.3,30.24,South,171,10.0,17.0,42,0.00,,,0.00,Wunderground v.1.15,2013-02-26 23:53:00,
2013-02-26 15:58:00,45.9,24.1,30.25,South,169,8.0,18.0,42,0.00,,,0.00,Wunderground v.1.15,2013-02-26 23:58:00,
2013-02-26 16:03:00,45.6,23.8,30.25,South,178,13.0,14.0,42,0.00,,,0.00,Wunderground v.1.15,2013-02-27 00:03:00,
2013-02-26 16:08:00,45.5,24.3,30.25,South,175,12.0,17.0,43,0.00,,,0.00,Wunderground v.1.15,2013-02-27 00:08:00,
2013-02-26 16:13:00,45.4,24.2,30.25,South,175,13.0,17.0,43,0.00,,,0.00,Wunderground v.1.15,2013-02-27 00:13:00,
2013-02-26 16:18:00,45.2,25.1,30.25,South,185,12.0,17.0,45,0.00,,,0.00,Wunderground v.1.15,2013-02-27 00:18:00,
2013-02-26 16:23:00,45.1,24.5,30.25,South,181,10.0,11.0,44,0.00,,,0.00,Wunderground v.1.15,2013-02-27 00:23:00,
2013-02-26 16:28:00,45.0,24.9,30.25,South,173,7.0,12.0,45,0.00,,,0.00,Wunderground v.1.15,2013-02-27 00:28:00,
2013-02-26 16:33:00,44.8,25.3,30.25,South,183,9.0,14.0,46,0.00,,,0.00,Wunderground v.1.15,2013-02-27 00:33:00,
2013-02-26 16:38:00,44.6,25.6,30.25,SSE,167,12.0,14.0,47,0.00,,,0.00,Wunderground v.1.15,2013-02-27 00:38:00,
2013-02-26 16:43:00,44.5,25.5,30.24,SSE,160,5.0,11.0,47,0.00,,,0.00,Wunderground v.1.15,2013-02-27 00:43:00,
2013-02-26 16:48:00,44.4,25.4,30.24,SSE,153,11.0,14.0,47,0.00,,,0.00,Wunderground v.1.15,2013-02-27 00:48:00,
2013-02-26 16:53:00,44.4,25.4,30.24,SSE,160,11.0,11.0,47,0.00,,,0.00,Wunderground v.1.15,2013-02-27 00:53:00,
2013-02-26 16:58:00,44.3,25.8,30.24,SSE,151,8.0,13.0,48,0.00,,,0.00,Wunderground v.1.15,2013-02-27 00:58:00,
2013-02-26 17:03:00,44.2,25.7,30.24,SSE,161,8.0,10.0,48,0.00,,,0.00,Wunderground v.1.15,2013-02-27 01:03:00,
2013-02-26 17:08:00,44.0,25.0,30.24,SSE,168,9.0,15.0,47,0.00,,,0.00,Wunderground v.1.15,2013-02-27 01:08:00,
2013-02-26 17:13:00,43.7,24.8,30.24,SSE,166,5.0,10.0,47,0.00,,,0.00,Wunderground v.1.15,2013-02-27 01:13:00,
2013-02-26 17:18:00,43.5,25.6,30.24,SSE,166,7.0,12.0,49,0.00,,,0.00,Wunderground v.1.15,2013-02-27 01:18:00,
2013-02-26 17:23:00,43.2,25.3,30.24,SSE,155,8.0,11.0,49,0.00,,,0.00,Wunderground v.1.15,2013-02-27 01:23:00,
2013-02-26 17:28:00,42.8,25.9,30.24,SSE,149,10.0,11.0,51,0.00,,,0.00,Wunderground v.1.15,2013-02-27 01:28:00,
2013-02-26 17:33:00,42.3,26.4,30.24,SSE,147,9.0,9.0,53,0.00,,,0.00,Wunderground v.1.15,2013-02-27 01:33:00,
2013-02-26 17:38:00,41.8,26.4,30.24,SE,144,7.0,10.0,54,0.00,,,0.00,Wunderground v.1.15,2013-02-27 01:38:00,
2013-02-26 17:43:00,41.1,25.7,30.24,SE,140,5.0,8.0,54,0.00,,,0.00,Wunderground v.1.15,2013-02-27 01:43:00,
2013-02-26 17:48:00,41.0,26.1,30.24,SE,135,7.0,8.0,55,0.00,,,0.00,Wunderground v.1.15,2013-02-27 01:48:00,
2013-02-26 17:53:00,40.9,26.0,30.24,SE,130,5.0,6.0,55,0.00,,,0.00,Wunderground v.1.15,2013-02-27 01:53:00,
2013-02-26 17:58:00,40.7,26.2,30.24,SE,129,5.0,7.0,56,0.00,,,0.00,Wunderground v.1.15,2013-02-27 01:58:00,
2013-02-26 18:03:00,40.3,26.3,30.24,SE,128,4.0,5.0,57,0.00,,,0.00,Wunderground v.1.15,2013-02-27 02:03:00,
2013-02-26 18:08:00,39.5,25.9,30.24,ESE,123,5.0,5.0,58,0.00,,,0.00,Wunderground v.1.15,2013-02-27 02:08:00,
2013-02-26 18:12:00,39.2,26.1,30.24,ESE,111,6.0,6.0,59,0.00,,,0.00,Wunderground v.1.15,2013-02-27 02:12:00,
2013-02-26 18:17:00,38.7,26.0,30.24,East,94,6.0,8.0,60,0.00,,,0.00,Wunderground v.1.15,2013-02-27 02:17:00,
2013-02-26 18:22:00,38.7,26.0,30.24,ENE,71,2.0,8.0,60,0.00,,,0.00,Wunderground v.1.15,2013-02-27 02:22:00,
2013-02-26 18:27:00,38.8,26.1,30.24,ESE,109,6.0,11.0,60,0.00,,,0.00,Wunderground v.1.15,2013-02-27 02:27:00,
2013-02-26 18:32:00,39.7,26.5,30.23,ESE,111,7.0,11.0,59,0.00,,,0.00,Wunderground v.1.15,2013-02-27 02:32:00,
2013-02-26 18:37:00,40.0,26.4,30.23,ESE,117,5.0,9.0,58,0.00,,,0.00,Wunderground v.1.15,2013-02-27 02:37:00,
2013-02-26 18:42:00,39.8,26.6,30.24,ESE,117,2.0,9.0,59,0.00,,,0.00,Wunderground v.1.15,2013-02-27 02:42:00,
2013-02-26 18:47:00,39.6,26.4,30.24,ESE,110,4.0,6.0,59,0.00,,,0.00,Wunderground v.1.15,2013-02-27 02:47:00,
2013-02-26 18:52:00,39.1,26.4,30.24,ESE,104,5.0,6.0,60,0.00,,,0.00,Wunderground v.1.15,2013-02-27 02:52:00,
2013-02-26 18:57:00,39.1,26.8,30.24,East,87,4.0,6.0,61,0.00,,,0.00,Wunderground v.1.15,2013-02-27 02:57:00,
2013-02-26 19:02:00,39.1,26.8,30.24,ENE,76,5.0,8.0,61,0.00,,,0.00,Wunderground v.1.15,2013-02-27 03:02:00,
2013-02-26 19:07:00,39.2,26.9,30.24,ENE,76,4.0,6.0,61,0.00,,,0.00,Wunderground v.1.15,2013-02-27 03:07:00,
2013-02-26 19:12:00,39.3,27.0,30.24,ENE,76,4.0,6.0,61,0.00,,,0.00,Wunderground v.1.15,2013-02-27 03:12:00,
2013-02-26 19:17:00,39.4,27.1,30.24,ENE,76,4.0,7.0,61,0.00,,,0.00,Wunderground v.1.15,2013-02-27 03:17:00,
2013-02-26 19:22:00,39.6,27.2,30.24,East,86,4.0,8.0,61,0.00,,,0.00,Wunderground v.1.15,2013-02-27 03:22:00,
2013-02-26 19:27:00,39.6,27.2,30.23,East,87,5.0,7.0,61,0.00,,,0.00,Wunderground v.1.15,2013-02-27 03:27:00,
2013-02-26 19:32:00,39.7,27.3,30.23,East,90,7.0,8.0,61,0.00,,,0.00,Wunderground v.1.15,2013-02-27 03:32:00,
2013-02-26 19:37:00,39.7,27.3,30.23,East,90,4.0,6.0,61,0.00,,,0.00,Wunderground v.1.15,2013-02-27 03:37:00,
2013-02-26 19:42:00,39.6,27.6,30.23,East,90,2.0,7.0,62,0.00,,,0.00,Wunderground v.1.15,2013-02-27 03:42:00,
2013-02-26 19:47:00,39.4,27.5,30.23,East,94,6.0,8.0,62,0.00,,,0.00,Wunderground v.1.15,2013-02-27 03:47:00,
2013-02-26 19:52:00,39.1,27.6,30.23,East,97,5.0,8.0,63,0.00,,,0.00,Wunderground v.1.15,2013-02-27 03:52:00,
2013-02-26 19:57:00,39.2,28.0,30.23,East,99,2.0,7.0,64,0.00,,,0.00,Wunderground v.1.15,2013-02-27 03:57:00,
2013-02-26 20:02:00,39.2,27.7,30.23,East,99,4.0,7.0,63,0.00,,,0.00,Wunderground v.1.15,2013-02-27 04:02:00,
2013-02-26 20:07:00,39.2,28.0,30.23,East,99,4.0,5.0,64,0.00,,,0.00,Wunderground v.1.15,2013-02-27 04:07:00,
2013-02-26 20:12:00,39.1,27.9,30.23,East,99,4.0,5.0,64,0.00,,,0.00,Wunderground v.1.15,2013-02-27 04:12:00,
2013-02-26 20:17:00,39.0,27.8,30.23,East,99,5.0,5.0,64,0.00,,,0.00,Wunderground v.1.15,2013-02-27 04:17:00,
2013-02-26 20:22:00,38.9,27.8,30.23,East,101,4.0,6.0,64,0.00,,,0.00,Wunderground v.1.15,2013-02-27 04:22:00,
2013-02-26 20:27:00,38.6,27.8,30.23,East,101,2.0,6.0,65,0.00,,,0.00,Wunderground v.1.15,2013-02-27 04:27:00,
2013-02-26 20:32:00,38.3,27.6,30.23,East,96,5.0,6.0,65,0.00,,,0.00,Wunderground v.1.15,2013-02-27 04:32:00,
2013-02-26 20:37:00,38.0,27.6,30.23,East,94,4.0,5.0,66,0.00,,,0.00,Wunderground v.1.15,2013-02-27 04:37:00,
2013-02-26 20:42:00,37.9,27.5,30.23,East,92,4.0,5.0,66,0.00,,,0.00,Wunderground v.1.15,2013-02-27 04:42:00,
2013-02-26 20:47:00,37.9,27.5,30.23,East,84,4.0,5.0,66,0.00,,,0.00,Wunderground v.1.15,2013-02-27 04:47:00,
2013-02-26 20:52:00,37.8,27.5,30.22,ENE,70,5.0,6.0,66,0.00,,,0.00,Wunderground v.1.15,2013-02-27 04:52:00,
2013-02-26 20:57:00,37.9,27.5,30.22,ENE,62,7.0,7.0,66,0.00,,,0.00,Wunderground v.1.15,2013-02-27 04:57:00,
2013-02-26 21:00:00,37.9,27.5,30.22,ENE,63,6.0,7.0,66,0.00,,,0.00,Wunderground v.1.15,2013-02-27 05:00:00,
2013-02-26 21:05:00,37.8,27.8,30.23,ENE,61,4.0,5.0,67,0.00,,,0.00,Wunderground v.1.15,2013-02-27 05:05:00,
2013-02-26 21:10:00,37.9,27.9,30.23,ENE,61,2.0,5.0,67,0.00,,,0.00,Wunderground v.1.15,2013-02-27 05:10:00,
2013-02-26 21:15:00,38.0,27.6,30.23,ENE,61,2.0,3.0,66,0.00,,,0.00,Wunderground v.1.15,2013-02-27 05:15:00,
2013-02-26 21:20:00,38.4,27.7,30.23,ENE,61,4.0,6.0,65,0.00,,,0.00,Wunderground v.1.15,2013-02-27 05:20:00,
2013-02-26 21:25:00,38.7,27.9,30.23,ENE,61,4.0,5.0,65,0.00,,,0.00,Wunderground v.1.15,2013-02-27 05:25:00,
2013-02-26 21:30:00,38.7,27.9,30.23,ENE,62,5.0,6.0,65,0.00,,,0.00,Wunderground v.1.15,2013-02-27 05:30:00,
2013-02-26 21:35:00,38.7,27.9,30.22,ENE,62,4.0,5.0,65,0.00,,,0.00,Wunderground v.1.15,2013-02-27 05:35:00,
2013-02-26 21:40:00,38.5,27.7,30.23,ENE,61,3.0,5.0,65,0.00,,,0.00,Wunderground v.1.15,2013-02-27 05:40:00,
2013-02-26 21:45:00,38.4,28.0,30.23,ENE,59,5.0,5.0,66,0.00,,,0.00,Wunderground v.1.15,2013-02-27 05:45:00,
2013-02-26 21:50:00,38.6,27.8,30.22,ENE,60,5.0,6.0,65,0.00,,,0.00,Wunderground v.1.15,2013-02-27 05:50:00,
2013-02-26 21:55:00,38.6,28.2,30.23,ENE,60,1.0,5.0,66,0.00,,,0.00,Wunderground v.1.15,2013-02-27 05:55:00,
2013-02-26 22:00:00,38.3,27.9,30.23,ENE,60,2.0,5.0,66,0.00,,,0.00,Wunderground v.1.15,2013-02-27 06:00:00,
2013-02-26 22:05:00,38.2,28.2,30.22,ENE,60,4.0,4.0,67,0.00,,,0.00,Wunderground v.1.15,2013-02-27 06:05:00,
2013-02-26 22:10:00,38.1,28.1,30.22,ENE,60,4.0,4.0,67,0.00,,,0.00,Wunderground v.1.15,2013-02-27 06:10:00,
2013-02-26 22:15:00,38.1,28.1,30.22,ENE,64,5.0,6.0,67,0.00,,,0.00,Wunderground v.1.15,2013-02-27 06:15:00,
2013-02-26 22:20:00,38.1,28.1,30.22,ENE,67,4.0,6.0,67,0.00,,,0.00,Wunderground v.1.15,2013-02-27 06:20:00,
2013-02-26 22:25:00,38.0,28.0,30.22,ENE,67,3.0,5.0,67,0.00,,,0.00,Wunderground v.1.15,2013-02-27 06:25:00,
2013-02-26 22:30:00,38.4,28.0,30.22,East,84,5.0,7.0,66,0.00,,,0.00,Wunderground v.1.15,2013-02-27 06:30:00,
2013-02-26 22:35:00,38.6,27.8,30.22,East,87,5.0,6.0,65,0.00,,,0.00,Wunderground v.1.15,2013-02-27 06:35:00,
2013-02-26 22:40:00,38.6,28.2,30.22,East,87,2.0,6.0,66,0.00,,,0.00,Wunderground v.1.15,2013-02-27 06:40:00,
2013-02-26 22:45:00,38.4,28.0,30.22,East,87,4.0,5.0,66,0.00,,,0.00,Wunderground v.1.15,2013-02-27 06:45:00,
2013-02-26 22:50:00,38.2,28.2,30.22,East,87,3.0,5.0,67,0.00,,,0.00,Wunderground v.1.15,2013-02-27 06:50:00,
2013-02-26 22:55:00,38.2,28.2,30.22,East,87,4.0,4.0,67,0.00,,,0.00,Wunderground v.1.15,2013-02-27 06:55:00,
2013-02-26 23:00:00,38.1,28.1,30.22,East,87,4.0,4.0,67,0.00,,,0.00,Wunderground v.1.15,2013-02-27 07:00:00,
2013-02-26 23:02:00,38.1,28.1,30.21,East,87,5.0,5.0,67,0.00,,,0.00,Wunderground v.1.15,2013-02-27 07:02:00,
2013-02-26 23:07:00,38.2,28.2,30.21,East,87,3.0,6.0,67,0.00,,,0.00,Wunderground v.1.15,2013-02-27 07:07:00,
2013-02-26 23:12:00,38.4,28.0,30.21,East,88,5.0,7.0,66,0.00,,,0.00,Wunderground v.1.15,2013-02-27 07:12:00,
2013-02-26 23:17:00,38.3,28.3,30.21,East,92,6.0,7.0,67,0.00,,,0.00,Wunderground v.1.15,2013-02-27 07:17:00,
2013-02-26 23:22:00,37.8,28.2,30.21,East,95,7.0,11.0,68,0.00,,,0.00,Wunderground v.1.15,2013-02-27 07:22:00,
2013-02-26 23:27:00,37.5,27.9,30.21,East,86,5.0,8.0,68,0.00,,,0.00,Wunderground v.1.15,2013-02-27 07:27:00,
2013-02-26 23:32:00,37.4,27.8,30.21,East,83,6.0,8.0,68,0.00,,,0.00,Wunderground v.1.15,2013-02-27 07:32:00,
2013-02-26 23:37:00,37.3,28.1,30.21,East,80,7.0,8.0,69,0.00,,,0.00,Wunderground v.1.15,2013-02-27 07:37:00,
2013-02-26 23:42:00,37.1,27.9,30.21,ENE,66,5.0,8.0,69,0.00,,,0.00,Wunderground v.1.15,2013-02-27 07:42:00,
2013-02-26 23:47:00,37.0,27.8,30.21,ENE,65,6.0,7.0,69,0.00,,,0.00,Wunderground v.1.15,2013-02-27 07:47:00,
2013-02-26 23:52:00,37.1,27.5,30.21,ENE,65,4.0,7.0,68,0.00,,,0.00,Wunderground v.1.15,2013-02-27 07:52:00,
2013-02-26 23:54:00,37.2,27.6,30.21,ENE,65,4.0,5.0,68,0.00,,,0.00,Wunderground v.1.15,2013-02-27 07:54:00,
2013-02-26 23:55:00,37.2,27.6,30.21,ENE,65,3.0,5.0,68,0.00,,,0.00,Wunderground v.1.15,2013-02-27 07:55:00,
2013-02-26 23:56:00,37.1,27.5,30.21,ENE,65,4.0,5.0,68,0.00,,,0.00,Wunderground v.1.15,2013-02-27 07:56:00,